首页
METAR-TAF:

METAR-TAF

机场 :

埃尔福特-魏玛机场

埃尔福特, 德国

纬度: 50-59N, 经度: 010-58E, 海拔: 315米

当前天气观测

该预报发布于23分钟前的02:50 UTC
风速21节,风向西转西北,有时为31节阵风
温度 3°C
湿度 81%
气压 1016 hPa
能见度10公里或以上
少量云层高于1600英尺, 积雨云.
多云层高于4600英尺
小阵雨

METAR: EDDE 210250Z 29021G31KT 9999 -SHRA FEW016CB BKN046 03/00 Q1016

时间: 04:13 (03:13 UTC)

预报

该预报发布于4小时和13分钟前的23:00 UTC
预报有效从21日的 00点(UTC)到 21日的 24点(UTC)
风速20节,风向西南,有时为30节阵风
能见度10公里或以上
多云层高于1500英尺
成为
从 21日的 00点(UTC)到 21日的 02点(UTC)
风速20节,风向西,有时为35节阵风
短暂存在
从 21日的 01点(UTC)到 21日的 03点(UTC)
风速25节,风向西转西北,有时为45节阵风
多云层高于1200英尺
雨, 雪
几率 30% :
短暂存在
从 21日的 01点(UTC)到 21日的 05点(UTC)
能見度: 4000
多云层高于800英尺
多云层高于1500英尺, 积雨云.
阵雨, 小冰雹或雪球
成为
从 21日的 05点(UTC)到 21日的 07点(UTC)
风速15节,风向西,有时为30节阵风
成为
从 21日的 15点(UTC)到 21日的 17点(UTC)
风速8节,风向西转西南

TAF: EDDE 202300Z 2100/2124 22020G30KT 9999 BKN015 BECMG 2100/2102 28020G35KT TEMPO 2101/2103 29025G45KT RASN BKN012 PROB30 TEMPO 2101/2105 4000 SHRAGS BKN008 BKN015CB BECMG 2105/2107 27015G30KT BECMG 2115/2117 24008KT

超过4000个机场的气象观测和天气预报(METAR&TAF报告)。

可查询的气象台以黄色和红色小点在地图上表示。

将鼠标移到小点上方,可查看气象台名称。

然后点击查看天气观测和预报。

如需切换地图:点击带黑十字的绿色按钮放大地图;点击带横线的绿色按钮缩小地图;或者点击绿色箭头查看邻近地区的地图。


METAR-TAF: